sensor_id;sensor_type;location;lat;lon;timestamp;temperature;humidity
54576;DHT22;40472;53.486;14.542;2023-05-07T00:02:00;6.90;99.90
54576;DHT22;40472;53.486;14.542;2023-05-07T00:04:26;7.00;99.90
54576;DHT22;40472;53.486;14.542;2023-05-07T00:06:53;6.90;99.90
54576;DHT22;40472;53.486;14.542;2023-05-07T00:09:19;6.90;99.90
54576;DHT22;40472;53.486;14.542;2023-05-07T00:11:45;7.00;99.90
54576;DHT22;40472;53.486;14.542;2023-05-07T00:14:10;7.00;99.90
54576;DHT22;40472;53.486;14.542;2023-05-07T00:16:36;7.00;99.90
54576;DHT22;40472;53.486;14.542;2023-05-07T00:19:02;7.00;99.90
54576;DHT22;40472;53.486;14.542;2023-05-07T00:21:28;6.90;99.90
54576;DHT22;40472;53.486;14.542;2023-05-07T00:23:54;7.00;99.90
54576;DHT22;40472;53.486;14.542;2023-05-07T00:26:20;7.00;99.90
54576;DHT22;40472;53.486;14.542;2023-05-07T00:28:46;7.00;99.90
54576;DHT22;40472;53.486;14.542;2023-05-07T00:31:12;7.00;99.90
54576;DHT22;40472;53.486;14.542;2023-05-07T00:33:38;7.00;99.90
54576;DHT22;40472;53.486;14.542;2023-05-07T00:36:04;7.00;99.90
54576;DHT22;40472;53.486;14.542;2023-05-07T00:38:31;7.00;99.90
54576;DHT22;40472;53.486;14.542;2023-05-07T00:40:56;7.00;99.90
54576;DHT22;40472;53.486;14.542;2023-05-07T00:43:22;7.10;99.90
54576;DHT22;40472;53.486;14.542;2023-05-07T00:45:48;7.10;99.90
54576;DHT22;40472;53.486;14.542;2023-05-07T00:48:15;7.00;99.90
54576;DHT22;40472;53.486;14.542;2023-05-07T00:50:41;7.00;99.90
54576;DHT22;40472;53.486;14.542;2023-05-07T00:53:07;7.00;99.90
54576;DHT22;40472;53.486;14.542;2023-05-07T00:55:34;7.00;99.90
54576;DHT22;40472;53.486;14.542;2023-05-07T00:58:01;7.00;99.90
54576;DHT22;40472;53.486;14.542;2023-05-07T01:00:27;7.00;99.90
54576;DHT22;40472;53.486;14.542;2023-05-07T01:02:53;7.00;99.90
54576;DHT22;40472;53.486;14.542;2023-05-07T01:05:20;7.00;99.90
54576;DHT22;40472;53.486;14.542;2023-05-07T01:07:49;7.00;99.90
54576;DHT22;40472;53.486;14.542;2023-05-07T01:10:16;6.90;99.90
54576;DHT22;40472;53.486;14.542;2023-05-07T01:12:43;6.90;99.90
54576;DHT22;40472;53.486;14.542;2023-05-07T01:15:10;6.90;99.90
54576;DHT22;40472;53.486;14.542;2023-05-07T01:17:38;6.80;99.90
54576;DHT22;40472;53.486;14.542;2023-05-07T01:20:08;6.80;99.90
54576;DHT22;40472;53.486;14.542;2023-05-07T01:22:39;6.80;99.90
54576;DHT22;40472;53.486;14.542;2023-05-07T01:25:07;6.80;99.90
54576;DHT22;40472;53.486;14.542;2023-05-07T01:27:34;6.80;99.90
54576;DHT22;40472;53.486;14.542;2023-05-07T01:30:00;6.70;99.90
54576;DHT22;40472;53.486;14.542;2023-05-07T01:32:33;6.60;99.90
54576;DHT22;40472;53.486;14.542;2023-05-07T01:35:02;6.60;99.90
54576;DHT22;40472;53.486;14.542;2023-05-07T01:37:29;6.50;99.90
54576;DHT22;40472;53.486;14.542;2023-05-07T01:39:55;6.50;99.90
54576;DHT22;40472;53.486;14.542;2023-05-07T01:42:21;6.40;99.90
54576;DHT22;40472;53.486;14.542;2023-05-07T01:44:48;6.40;99.90
54576;DHT22;40472;53.486;14.542;2023-05-07T01:47:14;6.30;99.90
54576;DHT22;40472;53.486;14.542;2023-05-07T01:49:41;6.30;99.90
54576;DHT22;40472;53.486;14.542;2023-05-07T01:52:09;6.20;99.90
54576;DHT22;40472;53.486;14.542;2023-05-07T01:54:38;6.20;99.90
54576;DHT22;40472;53.486;14.542;2023-05-07T01:57:03;6.20;99.90
54576;DHT22;40472;53.486;14.542;2023-05-07T01:59:30;6.10;99.90
54576;DHT22;40472;53.486;14.542;2023-05-07T02:01:56;6.10;99.90
54576;DHT22;40472;53.486;14.542;2023-05-07T02:04:21;6.10;99.90
54576;DHT22;40472;53.486;14.542;2023-05-07T02:06:48;6.10;99.90
54576;DHT22;40472;53.486;14.542;2023-05-07T02:09:14;6.10;99.90
54576;DHT22;40472;53.486;14.542;2023-05-07T02:11:40;6.00;99.90
54576;DHT22;40472;53.486;14.542;2023-05-07T02:14:06;6.00;99.90
54576;DHT22;40472;53.486;14.542;2023-05-07T02:16:32;5.90;99.90
54576;DHT22;40472;53.486;14.542;2023-05-07T02:19:00;5.90;99.90
54576;DHT22;40472;53.486;14.542;2023-05-07T02:21:25;5.90;99.90
54576;DHT22;40472;53.486;14.542;2023-05-07T02:23:51;5.90;99.90
54576;DHT22;40472;53.486;14.542;2023-05-07T02:26:18;5.90;99.90
54576;DHT22;40472;53.486;14.542;2023-05-07T02:28:44;6.00;99.90
54576;DHT22;40472;53.486;14.542;2023-05-07T02:31:10;6.00;99.90
54576;DHT22;40472;53.486;14.542;2023-05-07T02:33:35;6.00;99.90
54576;DHT22;40472;53.486;14.542;2023-05-07T02:36:06;6.10;99.90
54576;DHT22;40472;53.486;14.542;2023-05-07T02:38:32;6.20;99.90
54576;DHT22;40472;53.486;14.542;2023-05-07T02:40:58;6.30;99.90
54576;DHT22;40472;53.486;14.542;2023-05-07T02:43:23;6.30;99.90
54576;DHT22;40472;53.486;14.542;2023-05-07T02:45:59;6.30;99.90
54576;DHT22;40472;53.486;14.542;2023-05-07T02:48:25;6.40;99.90
54576;DHT22;40472;53.486;14.542;2023-05-07T02:50:57;6.40;99.90
54576;DHT22;40472;53.486;14.542;2023-05-07T02:53:24;6.50;99.90
54576;DHT22;40472;53.486;14.542;2023-05-07T02:55:55;6.40;99.90
54576;DHT22;40472;53.486;14.542;2023-05-07T02:58:21;6.40;99.90
54576;DHT22;40472;53.486;14.542;2023-05-07T03:00:47;6.40;99.90
54576;DHT22;40472;53.486;14.542;2023-05-07T03:03:13;6.30;99.90
54576;DHT22;40472;53.486;14.542;2023-05-07T03:05:39;6.30;99.90
54576;DHT22;40472;53.486;14.542;2023-05-07T03:08:05;6.20;99.90
54576;DHT22;40472;53.486;14.542;2023-05-07T03:10:30;6.20;99.90
54576;DHT22;40472;53.486;14.542;2023-05-07T03:12:56;6.20;99.90
54576;DHT22;40472;53.486;14.542;2023-05-07T03:15:22;6.10;99.90
54576;DHT22;40472;53.486;14.542;2023-05-07T03:17:48;6.10;99.90
54576;DHT22;40472;53.486;14.542;2023-05-07T03:20:14;6.10;99.90
54576;DHT22;40472;53.486;14.542;2023-05-07T03:22:40;6.10;99.90
54576;DHT22;40472;53.486;14.542;2023-05-07T03:25:07;6.00;99.90
54576;DHT22;40472;53.486;14.542;2023-05-07T03:27:33;6.00;99.90
54576;DHT22;40472;53.486;14.542;2023-05-07T03:29:58;6.00;99.90
54576;DHT22;40472;53.486;14.542;2023-05-07T03:32:24;6.00;99.90
54576;DHT22;40472;53.486;14.542;2023-05-07T03:34:50;5.90;99.90
54576;DHT22;40472;53.486;14.542;2023-05-07T03:37:16;5.90;99.90
54576;DHT22;40472;53.486;14.542;2023-05-07T03:39:41;5.90;99.90
54576;DHT22;40472;53.486;14.542;2023-05-07T03:42:07;5.90;99.90
54576;DHT22;40472;53.486;14.542;2023-05-07T03:44:33;5.90;99.90
54576;DHT22;40472;53.486;14.542;2023-05-07T03:46:59;5.80;99.90
54576;DHT22;40472;53.486;14.542;2023-05-07T03:49:24;5.80;99.90
54576;DHT22;40472;53.486;14.542;2023-05-07T03:51:50;5.80;99.90
54576;DHT22;40472;53.486;14.542;2023-05-07T03:54:16;5.90;99.90
54576;DHT22;40472;53.486;14.542;2023-05-07T03:56:42;5.90;99.90
54576;DHT22;40472;53.486;14.542;2023-05-07T03:59:10;6.00;99.90
54576;DHT22;40472;53.486;14.542;2023-05-07T04:01:35;6.10;99.90
54576;DHT22;40472;53.486;14.542;2023-05-07T04:04:01;6.10;99.90
54576;DHT22;40472;53.486;14.542;2023-05-07T04:06:28;6.10;99.90
54576;DHT22;40472;53.486;14.542;2023-05-07T04:08:54;6.10;99.90
54576;DHT22;40472;53.486;14.542;2023-05-07T04:11:19;6.10;99.90
54576;DHT22;40472;53.486;14.542;2023-05-07T04:13:45;6.20;99.90
54576;DHT22;40472;53.486;14.542;2023-05-07T04:16:11;6.20;99.90
54576;DHT22;40472;53.486;14.542;2023-05-07T04:18:37;6.20;99.90
54576;DHT22;40472;53.486;14.542;2023-05-07T04:21:03;6.20;99.90
54576;DHT22;40472;53.486;14.542;2023-05-07T04:23:29;6.20;99.90
54576;DHT22;40472;53.486;14.542;2023-05-07T04:25:54;6.30;99.90
54576;DHT22;40472;53.486;14.542;2023-05-07T04:28:20;6.30;99.90
54576;DHT22;40472;53.486;14.542;2023-05-07T04:30:46;6.30;99.90
54576;DHT22;40472;53.486;14.542;2023-05-07T04:33:14;6.30;99.90
54576;DHT22;40472;53.486;14.542;2023-05-07T04:35:42;6.40;99.90
54576;DHT22;40472;53.486;14.542;2023-05-07T04:38:08;6.40;99.90
54576;DHT22;40472;53.486;14.542;2023-05-07T04:40:35;6.50;99.90
54576;DHT22;40472;53.486;14.542;2023-05-07T04:43:01;6.50;99.90
54576;DHT22;40472;53.486;14.542;2023-05-07T04:45:27;6.60;99.90
54576;DHT22;40472;53.486;14.542;2023-05-07T04:47:53;6.70;99.90
54576;DHT22;40472;53.486;14.542;2023-05-07T04:50:19;6.70;99.90
54576;DHT22;40472;53.486;14.542;2023-05-07T04:52:45;6.80;99.90
54576;DHT22;40472;53.486;14.542;2023-05-07T04:55:11;6.80;99.90
54576;DHT22;40472;53.486;14.542;2023-05-07T04:57:37;6.90;99.90
54576;DHT22;40472;53.486;14.542;2023-05-07T05:00:05;6.90;99.90
54576;DHT22;40472;53.486;14.542;2023-05-07T05:02:36;7.00;99.90
54576;DHT22;40472;53.486;14.542;2023-05-07T05:05:02;7.00;99.90
54576;DHT22;40472;53.486;14.542;2023-05-07T05:07:28;7.10;99.90
54576;DHT22;40472;53.486;14.542;2023-05-07T05:09:54;7.20;99.90
54576;DHT22;40472;53.486;14.542;2023-05-07T05:12:20;7.30;99.90
54576;DHT22;40472;53.486;14.542;2023-05-07T05:14:46;7.30;99.90
54576;DHT22;40472;53.486;14.542;2023-05-07T05:17:12;7.30;99.90
54576;DHT22;40472;53.486;14.542;2023-05-07T05:19:38;7.40;99.90
54576;DHT22;40472;53.486;14.542;2023-05-07T05:22:04;7.50;99.90
54576;DHT22;40472;53.486;14.542;2023-05-07T05:24:30;7.50;99.90
54576;DHT22;40472;53.486;14.542;2023-05-07T05:26:56;7.60;99.90
54576;DHT22;40472;53.486;14.542;2023-05-07T05:29:22;7.70;99.90
54576;DHT22;40472;53.486;14.542;2023-05-07T05:31:48;7.70;99.90
54576;DHT22;40472;53.486;14.542;2023-05-07T05:34:14;7.80;99.90
54576;DHT22;40472;53.486;14.542;2023-05-07T05:36:40;7.70;99.90
54576;DHT22;40472;53.486;14.542;2023-05-07T05:39:05;7.90;99.90
54576;DHT22;40472;53.486;14.542;2023-05-07T05:41:31;7.90;99.90
54576;DHT22;40472;53.486;14.542;2023-05-07T05:43:57;8.00;99.90
54576;DHT22;40472;53.486;14.542;2023-05-07T05:46:23;8.00;99.90
54576;DHT22;40472;53.486;14.542;2023-05-07T05:48:49;8.10;99.90
54576;DHT22;40472;53.486;14.542;2023-05-07T05:51:15;8.10;99.90
54576;DHT22;40472;53.486;14.542;2023-05-07T05:53:40;8.20;99.90
54576;DHT22;40472;53.486;14.542;2023-05-07T05:56:06;8.20;99.90
54576;DHT22;40472;53.486;14.542;2023-05-07T05:58:32;8.30;99.90
54576;DHT22;40472;53.486;14.542;2023-05-07T06:00:58;8.30;99.90
54576;DHT22;40472;53.486;14.542;2023-05-07T06:03:24;8.40;99.90
54576;DHT22;40472;53.486;14.542;2023-05-07T06:05:49;8.40;99.90
54576;DHT22;40472;53.486;14.542;2023-05-07T06:08:15;8.50;99.90
54576;DHT22;40472;53.486;14.542;2023-05-07T06:10:41;8.50;99.90
54576;DHT22;40472;53.486;14.542;2023-05-07T06:13:07;8.60;99.90
54576;DHT22;40472;53.486;14.542;2023-05-07T06:15:33;8.60;99.90
54576;DHT22;40472;53.486;14.542;2023-05-07T06:17:58;8.60;99.90
54576;DHT22;40472;53.486;14.542;2023-05-07T06:20:24;8.70;99.90
54576;DHT22;40472;53.486;14.542;2023-05-07T06:22:50;8.70;99.90
54576;DHT22;40472;53.486;14.542;2023-05-07T06:25:16;8.80;99.90
54576;DHT22;40472;53.486;14.542;2023-05-07T06:27:42;8.90;99.90
54576;DHT22;40472;53.486;14.542;2023-05-07T06:30:08;8.90;99.90
54576;DHT22;40472;53.486;14.542;2023-05-07T06:32:34;9.00;99.90
54576;DHT22;40472;53.486;14.542;2023-05-07T06:34:59;9.00;99.90
54576;DHT22;40472;53.486;14.542;2023-05-07T06:37:25;9.10;99.90
54576;DHT22;40472;53.486;14.542;2023-05-07T06:39:51;9.20;99.90
54576;DHT22;40472;53.486;14.542;2023-05-07T06:42:17;9.20;99.90
54576;DHT22;40472;53.486;14.542;2023-05-07T06:44:43;9.40;99.90
54576;DHT22;40472;53.486;14.542;2023-05-07T06:47:08;9.50;99.90
54576;DHT22;40472;53.486;14.542;2023-05-07T06:49:34;9.60;99.90
54576;DHT22;40472;53.486;14.542;2023-05-07T06:52:00;9.60;99.90
54576;DHT22;40472;53.486;14.542;2023-05-07T06:54:26;9.70;99.90
54576;DHT22;40472;53.486;14.542;2023-05-07T06:56:52;9.80;99.90
54576;DHT22;40472;53.486;14.542;2023-05-07T06:59:20;9.80;99.90
54576;DHT22;40472;53.486;14.542;2023-05-07T07:01:46;9.90;99.90
54576;DHT22;40472;53.486;14.542;2023-05-07T07:04:12;10.00;99.90
54576;DHT22;40472;53.486;14.542;2023-05-07T07:06:38;10.10;99.90
54576;DHT22;40472;53.486;14.542;2023-05-07T07:09:03;10.10;99.90
54576;DHT22;40472;53.486;14.542;2023-05-07T07:11:30;10.20;99.90
54576;DHT22;40472;53.486;14.542;2023-05-07T07:13:55;10.30;99.90
54576;DHT22;40472;53.486;14.542;2023-05-07T07:16:22;10.30;99.90
54576;DHT22;40472;53.486;14.542;2023-05-07T07:18:47;10.30;99.90
54576;DHT22;40472;53.486;14.542;2023-05-07T07:21:13;10.40;99.90
54576;DHT22;40472;53.486;14.542;2023-05-07T07:23:39;10.40;99.90
54576;DHT22;40472;53.486;14.542;2023-05-07T07:26:06;10.40;99.90
54576;DHT22;40472;53.486;14.542;2023-05-07T07:28:32;10.50;99.90
54576;DHT22;40472;53.486;14.542;2023-05-07T07:30:58;10.50;99.90
54576;DHT22;40472;53.486;14.542;2023-05-07T07:33:24;10.60;99.90
54576;DHT22;40472;53.486;14.542;2023-05-07T07:35:50;10.60;99.90
54576;DHT22;40472;53.486;14.542;2023-05-07T07:38:18;10.60;99.90
54576;DHT22;40472;53.486;14.542;2023-05-07T07:40:47;10.70;99.90
54576;DHT22;40472;53.486;14.542;2023-05-07T07:43:13;10.80;99.90
54576;DHT22;40472;53.486;14.542;2023-05-07T07:45:39;10.80;99.90
54576;DHT22;40472;53.486;14.542;2023-05-07T07:48:05;10.90;99.90
54576;DHT22;40472;53.486;14.542;2023-05-07T07:50:31;10.80;99.90
54576;DHT22;40472;53.486;14.542;2023-05-07T07:52:57;11.00;99.90
54576;DHT22;40472;53.486;14.542;2023-05-07T07:55:23;11.10;99.90
54576;DHT22;40472;53.486;14.542;2023-05-07T07:57:49;11.10;99.90
54576;DHT22;40472;53.486;14.542;2023-05-07T08:00:16;11.20;99.90
54576;DHT22;40472;53.486;14.542;2023-05-07T08:02:42;11.20;99.90
54576;DHT22;40472;53.486;14.542;2023-05-07T08:05:08;11.30;99.90
54576;DHT22;40472;53.486;14.542;2023-05-07T08:07:34;11.30;99.90
54576;DHT22;40472;53.486;14.542;2023-05-07T08:09:59;11.30;99.90
54576;DHT22;40472;53.486;14.542;2023-05-07T08:12:25;11.40;99.90
54576;DHT22;40472;53.486;14.542;2023-05-07T08:14:53;11.40;99.90
54576;DHT22;40472;53.486;14.542;2023-05-07T08:17:19;11.50;99.90
54576;DHT22;40472;53.486;14.542;2023-05-07T08:19:47;11.60;99.90
54576;DHT22;40472;53.486;14.542;2023-05-07T08:22:13;11.70;99.90
54576;DHT22;40472;53.486;14.542;2023-05-07T08:24:40;11.80;99.90
54576;DHT22;40472;53.486;14.542;2023-05-07T08:27:05;11.80;99.90
54576;DHT22;40472;53.486;14.542;2023-05-07T08:29:31;11.70;99.90
54576;DHT22;40472;53.486;14.542;2023-05-07T08:31:57;11.80;99.90
54576;DHT22;40472;53.486;14.542;2023-05-07T08:34:23;11.80;99.90
54576;DHT22;40472;53.486;14.542;2023-05-07T08:36:49;11.90;99.90
54576;DHT22;40472;53.486;14.542;2023-05-07T08:39:17;11.90;99.90
54576;DHT22;40472;53.486;14.542;2023-05-07T08:41:45;11.90;99.90
54576;DHT22;40472;53.486;14.542;2023-05-07T08:44:13;12.00;99.90
54576;DHT22;40472;53.486;14.542;2023-05-07T08:46:45;12.00;99.90
54576;DHT22;40472;53.486;14.542;2023-05-07T08:49:14;12.20;99.90
54576;DHT22;40472;53.486;14.542;2023-05-07T08:51:41;12.20;99.90
54576;DHT22;40472;53.486;14.542;2023-05-07T08:54:07;12.30;99.90
54576;DHT22;40472;53.486;14.542;2023-05-07T08:56:34;12.30;99.90
54576;DHT22;40472;53.486;14.542;2023-05-07T08:59:00;12.40;99.90
54576;DHT22;40472;53.486;14.542;2023-05-07T09:01:26;12.40;99.90
54576;DHT22;40472;53.486;14.542;2023-05-07T09:03:53;12.40;99.90
54576;DHT22;40472;53.486;14.542;2023-05-07T09:06:18;12.50;99.90
54576;DHT22;40472;53.486;14.542;2023-05-07T09:08:52;12.40;99.90
54576;DHT22;40472;53.486;14.542;2023-05-07T09:11:22;12.40;99.90
54576;DHT22;40472;53.486;14.542;2023-05-07T09:13:51;12.50;99.90
54576;DHT22;40472;53.486;14.542;2023-05-07T09:16:20;12.60;99.90
54576;DHT22;40472;53.486;14.542;2023-05-07T09:18:46;12.50;99.90
54576;DHT22;40472;53.486;14.542;2023-05-07T09:21:17;12.50;99.90
54576;DHT22;40472;53.486;14.542;2023-05-07T09:23:44;12.70;99.90
54576;DHT22;40472;53.486;14.542;2023-05-07T09:26:10;12.80;99.90
54576;DHT22;40472;53.486;14.542;2023-05-07T09:28:49;12.80;99.90
54576;DHT22;40472;53.486;14.542;2023-05-07T09:31:16;12.70;99.90
54576;DHT22;40472;53.486;14.542;2023-05-07T09:33:42;12.70;99.90
54576;DHT22;40472;53.486;14.542;2023-05-07T09:36:09;12.80;99.90
54576;DHT22;40472;53.486;14.542;2023-05-07T09:38:37;12.90;99.90
54576;DHT22;40472;53.486;14.542;2023-05-07T09:41:10;13.00;99.00
54576;DHT22;40472;53.486;14.542;2023-05-07T09:43:39;13.10;99.90
54576;DHT22;40472;53.486;14.542;2023-05-07T09:46:12;13.10;99.90
54576;DHT22;40472;53.486;14.542;2023-05-07T09:48:40;13.30;99.90
54576;DHT22;40472;53.486;14.542;2023-05-07T09:53:42;13.20;99.70
54576;DHT22;40472;53.486;14.542;2023-05-07T09:56:08;13.30;98.90
54576;DHT22;40472;53.486;14.542;2023-05-07T09:58:37;13.20;99.50
54576;DHT22;40472;53.486;14.542;2023-05-07T10:01:05;13.20;98.50
54576;DHT22;40472;53.486;14.542;2023-05-07T10:03:33;13.20;99.90
54576;DHT22;40472;53.486;14.542;2023-05-07T10:06:00;13.40;99.70
54576;DHT22;40472;53.486;14.542;2023-05-07T10:08:27;13.50;99.40
54576;DHT22;40472;53.486;14.542;2023-05-07T10:10:53;13.40;97.10
54576;DHT22;40472;53.486;14.542;2023-05-07T10:13:19;13.30;97.50
54576;DHT22;40472;53.486;14.542;2023-05-07T10:15:45;13.40;98.30
54576;DHT22;40472;53.486;14.542;2023-05-07T10:18:13;13.50;98.20
54576;DHT22;40472;53.486;14.542;2023-05-07T10:20:39;13.50;97.00
54576;DHT22;40472;53.486;14.542;2023-05-07T10:23:07;13.60;99.70
54576;DHT22;40472;53.486;14.542;2023-05-07T10:25:35;13.80;97.50
54576;DHT22;40472;53.486;14.542;2023-05-07T10:28:08;13.80;98.10
54576;DHT22;40472;53.486;14.542;2023-05-07T10:33:24;13.90;96.20
54576;DHT22;40472;53.486;14.542;2023-05-07T10:35:56;13.90;95.60
54576;DHT22;40472;53.486;14.542;2023-05-07T10:38:24;13.80;96.50
54576;DHT22;40472;53.486;14.542;2023-05-07T10:40:54;13.80;95.70
54576;DHT22;40472;53.486;14.542;2023-05-07T10:43:20;13.70;96.40
54576;DHT22;40472;53.486;14.542;2023-05-07T10:46:11;13.90;97.90
54576;DHT22;40472;53.486;14.542;2023-05-07T10:51:32;13.90;95.00
54576;DHT22;40472;53.486;14.542;2023-05-07T10:56:37;13.80;94.70
54576;DHT22;40472;53.486;14.542;2023-05-07T10:59:33;13.70;92.80
54576;DHT22;40472;53.486;14.542;2023-05-07T11:02:01;13.80;95.90
54576;DHT22;40472;53.486;14.542;2023-05-07T11:04:32;14.10;94.50
54576;DHT22;40472;53.486;14.542;2023-05-07T11:09:56;14.20;93.60
54576;DHT22;40472;53.486;14.542;2023-05-07T11:15:06;14.20;93.30
54576;DHT22;40472;53.486;14.542;2023-05-07T11:17:33;14.30;92.50
54576;DHT22;40472;53.486;14.542;2023-05-07T11:20:01;14.30;91.60
54576;DHT22;40472;53.486;14.542;2023-05-07T11:25:01;14.20;92.90
54576;DHT22;40472;53.486;14.542;2023-05-07T11:27:27;14.20;92.50
54576;DHT22;40472;53.486;14.542;2023-05-07T11:29:54;14.30;92.60
54576;DHT22;40472;53.486;14.542;2023-05-07T11:32:32;14.50;92.00
54576;DHT22;40472;53.486;14.542;2023-05-07T11:34:59;14.50;92.30
54576;DHT22;40472;53.486;14.542;2023-05-07T11:37:26;14.60;90.70
54576;DHT22;40472;53.486;14.542;2023-05-07T11:40:08;14.60;88.30
54576;DHT22;40472;53.486;14.542;2023-05-07T11:42:40;14.50;86.40
54576;DHT22;40472;53.486;14.542;2023-05-07T11:45:08;14.50;89.40
54576;DHT22;40472;53.486;14.542;2023-05-07T11:47:34;14.70;86.10
54576;DHT22;40472;53.486;14.542;2023-05-07T11:50:07;14.80;84.40
54576;DHT22;40472;53.486;14.542;2023-05-07T11:52:34;14.90;84.40
54576;DHT22;40472;53.486;14.542;2023-05-07T11:55:01;14.80;79.80
54576;DHT22;40472;53.486;14.542;2023-05-07T11:57:29;14.70;79.90
54576;DHT22;40472;53.486;14.542;2023-05-07T12:00:01;14.70;82.40
54576;DHT22;40472;53.486;14.542;2023-05-07T12:02:29;14.80;81.20
54576;DHT22;40472;53.486;14.542;2023-05-07T12:04:56;14.80;83.50
54576;DHT22;40472;53.486;14.542;2023-05-07T12:07:23;14.80;80.30
54576;DHT22;40472;53.486;14.542;2023-05-07T12:09:50;14.80;78.30
54576;DHT22;40472;53.486;14.542;2023-05-07T12:12:16;14.80;78.50
54576;DHT22;40472;53.486;14.542;2023-05-07T12:14:44;14.90;80.70
54576;DHT22;40472;53.486;14.542;2023-05-07T12:17:12;15.10;83.90
54576;DHT22;40472;53.486;14.542;2023-05-07T12:19:40;15.30;75.70
54576;DHT22;40472;53.486;14.542;2023-05-07T12:22:08;15.20;77.40
54576;DHT22;40472;53.486;14.542;2023-05-07T12:24:49;15.20;79.20
54576;DHT22;40472;53.486;14.542;2023-05-07T12:27:16;15.20;77.20
54576;DHT22;40472;53.486;14.542;2023-05-07T12:29:50;15.20;73.90
54576;DHT22;40472;53.486;14.542;2023-05-07T12:32:25;15.20;78.80
54576;DHT22;40472;53.486;14.542;2023-05-07T12:34:53;15.30;75.50
54576;DHT22;40472;53.486;14.542;2023-05-07T12:37:25;15.30;78.20
54576;DHT22;40472;53.486;14.542;2023-05-07T12:40:08;15.10;76.30
54576;DHT22;40472;53.486;14.542;2023-05-07T12:42:39;15.40;78.40
54576;DHT22;40472;53.486;14.542;2023-05-07T12:45:12;15.70;72.60
54576;DHT22;40472;53.486;14.542;2023-05-07T12:47:38;15.60;77.10
54576;DHT22;40472;53.486;14.542;2023-05-07T12:50:06;15.80;76.50
54576;DHT22;40472;53.486;14.542;2023-05-07T12:52:33;15.80;74.60
54576;DHT22;40472;53.486;14.542;2023-05-07T12:55:05;15.70;74.70
54576;DHT22;40472;53.486;14.542;2023-05-07T12:57:41;15.60;77.60
54576;DHT22;40472;53.486;14.542;2023-05-07T13:00:07;15.70;76.30
54576;DHT22;40472;53.486;14.542;2023-05-07T13:02:37;15.60;75.00
54576;DHT22;40472;53.486;14.542;2023-05-07T13:05:03;15.70;73.00
54576;DHT22;40472;53.486;14.542;2023-05-07T13:07:29;15.60;70.20
54576;DHT22;40472;53.486;14.542;2023-05-07T13:09:55;15.40;72.60
54576;DHT22;40472;53.486;14.542;2023-05-07T13:12:21;15.50;74.10
54576;DHT22;40472;53.486;14.542;2023-05-07T13:14:47;15.50;73.60
54576;DHT22;40472;53.486;14.542;2023-05-07T13:17:15;15.70;72.00
54576;DHT22;40472;53.486;14.542;2023-05-07T13:19:41;15.60;72.70
54576;DHT22;40472;53.486;14.542;2023-05-07T13:22:07;15.70;75.30
54576;DHT22;40472;53.486;14.542;2023-05-07T13:24:33;15.60;76.50
54576;DHT22;40472;53.486;14.542;2023-05-07T13:26:58;15.70;76.80
54576;DHT22;40472;53.486;14.542;2023-05-07T13:29:25;15.80;77.30
54576;DHT22;40472;53.486;14.542;2023-05-07T13:31:54;15.80;77.20
54576;DHT22;40472;53.486;14.542;2023-05-07T13:34:20;15.60;73.50
54576;DHT22;40472;53.486;14.542;2023-05-07T13:36:46;15.60;75.00
54576;DHT22;40472;53.486;14.542;2023-05-07T13:39:12;15.60;74.00
54576;DHT22;40472;53.486;14.542;2023-05-07T13:41:38;15.60;76.20
54576;DHT22;40472;53.486;14.542;2023-05-07T13:44:03;15.60;75.20
54576;DHT22;40472;53.486;14.542;2023-05-07T13:46:29;15.70;76.70
54576;DHT22;40472;53.486;14.542;2023-05-07T13:48:55;15.70;76.80
54576;DHT22;40472;53.486;14.542;2023-05-07T13:51:22;15.70;76.10
54576;DHT22;40472;53.486;14.542;2023-05-07T13:53:47;15.80;77.20
54576;DHT22;40472;53.486;14.542;2023-05-07T13:56:14;16.10;76.70
54576;DHT22;40472;53.486;14.542;2023-05-07T13:58:40;16.10;77.60
54576;DHT22;40472;53.486;14.542;2023-05-07T14:01:06;16.10;76.50
54576;DHT22;40472;53.486;14.542;2023-05-07T14:03:34;15.80;76.20
54576;DHT22;40472;53.486;14.542;2023-05-07T14:06:03;15.60;76.60
54576;DHT22;40472;53.486;14.542;2023-05-07T14:08:29;15.80;78.90
54576;DHT22;40472;53.486;14.542;2023-05-07T14:10:55;15.60;78.00
54576;DHT22;40472;53.486;14.542;2023-05-07T14:13:21;15.90;79.10
54576;DHT22;40472;53.486;14.542;2023-05-07T14:15:47;16.00;77.50
54576;DHT22;40472;53.486;14.542;2023-05-07T14:18:15;15.90;78.90
54576;DHT22;40472;53.486;14.542;2023-05-07T14:20:43;16.10;76.20
54576;DHT22;40472;53.486;14.542;2023-05-07T14:23:11;16.10;78.20
54576;DHT22;40472;53.486;14.542;2023-05-07T14:25:37;16.10;78.20
54576;DHT22;40472;53.486;14.542;2023-05-07T14:28:05;16.10;79.30
54576;DHT22;40472;53.486;14.542;2023-05-07T14:30:31;16.00;79.00
54576;DHT22;40472;53.486;14.542;2023-05-07T14:32:57;16.00;78.50
54576;DHT22;40472;53.486;14.542;2023-05-07T14:35:23;16.10;78.70
54576;DHT22;40472;53.486;14.542;2023-05-07T14:37:49;16.00;78.20
54576;DHT22;40472;53.486;14.542;2023-05-07T14:40:14;16.20;76.10
54576;DHT22;40472;53.486;14.542;2023-05-07T14:42:40;15.90;78.20
54576;DHT22;40472;53.486;14.542;2023-05-07T14:45:07;15.90;78.00
54576;DHT22;40472;53.486;14.542;2023-05-07T14:47:33;15.80;81.10
54576;DHT22;40472;53.486;14.542;2023-05-07T14:50:01;15.80;79.20
54576;DHT22;40472;53.486;14.542;2023-05-07T14:52:27;15.80;81.10
54576;DHT22;40472;53.486;14.542;2023-05-07T14:54:53;15.80;82.90
54576;DHT22;40472;53.486;14.542;2023-05-07T14:57:18;15.90;80.40
54576;DHT22;40472;53.486;14.542;2023-05-07T14:59:47;15.90;81.40
54576;DHT22;40472;53.486;14.542;2023-05-07T15:02:13;15.90;78.50
54576;DHT22;40472;53.486;14.542;2023-05-07T15:04:40;15.90;80.00
54576;DHT22;40472;53.486;14.542;2023-05-07T15:07:14;15.90;81.10
54576;DHT22;40472;53.486;14.542;2023-05-07T15:09:44;15.90;79.60
54576;DHT22;40472;53.486;14.542;2023-05-07T15:12:10;16.00;79.70
54576;DHT22;40472;53.486;14.542;2023-05-07T15:14:38;15.90;78.40
54576;DHT22;40472;53.486;14.542;2023-05-07T15:17:04;15.90;78.70
54576;DHT22;40472;53.486;14.542;2023-05-07T15:19:32;15.80;78.10
54576;DHT22;40472;53.486;14.542;2023-05-07T15:21:59;16.00;77.30
54576;DHT22;40472;53.486;14.542;2023-05-07T15:24:31;15.90;78.40
54576;DHT22;40472;53.486;14.542;2023-05-07T15:26:57;15.80;78.50
54576;DHT22;40472;53.486;14.542;2023-05-07T15:29:24;15.70;77.70
54576;DHT22;40472;53.486;14.542;2023-05-07T15:31:50;15.60;76.60
54576;DHT22;40472;53.486;14.542;2023-05-07T15:34:17;15.80;76.70
54576;DHT22;40472;53.486;14.542;2023-05-07T15:36:43;15.90;78.50
54576;DHT22;40472;53.486;14.542;2023-05-07T15:39:09;16.30;80.20
54576;DHT22;40472;53.486;14.542;2023-05-07T15:41:38;16.90;78.20